createdAt,value
2018-09-22T00:00:22.005Z,13.0
2018-09-22T00:01:23.474Z,13.1
2018-09-22T00:02:25.096Z,13.0
2018-09-22T00:03:26.557Z,12.9
2018-09-22T00:04:27.985Z,12.9
2018-09-22T00:05:29.631Z,13.0
2018-09-22T00:06:31.084Z,12.9
2018-09-22T00:07:32.548Z,12.9
2018-09-22T00:08:34.200Z,12.8
2018-09-22T00:09:35.627Z,12.8
2018-09-22T00:10:37.216Z,12.8
2018-09-22T00:11:38.653Z,12.7
2018-09-22T00:12:40.327Z,12.8
2018-09-22T00:13:41.777Z,12.7
2018-09-22T00:14:43.415Z,12.7
2018-09-22T00:15:44.816Z,12.6
2018-09-22T00:16:46.507Z,12.7
2018-09-22T00:17:47.925Z,12.7
2018-09-22T00:18:49.627Z,12.7
2018-09-22T00:19:51.064Z,12.7
2018-09-22T00:20:52.524Z,12.6
2018-09-22T00:21:54.118Z,12.6
2018-09-22T00:22:55.548Z,12.6
2018-09-22T00:23:57.006Z,12.7
2018-09-22T00:24:58.635Z,12.7
2018-09-22T00:26:00.121Z,12.7
2018-09-22T00:27:01.533Z,12.7
2018-09-22T00:28:03.254Z,12.8
2018-09-22T00:29:04.691Z,12.8
2018-09-22T00:30:06.143Z,12.8
2018-09-22T00:31:07.700Z,12.8
2018-09-22T00:32:09.129Z,12.8
2018-09-22T00:33:10.775Z,12.8
2018-09-22T00:34:12.224Z,12.8
2018-09-22T00:35:13.874Z,12.8
2018-09-22T00:36:15.313Z,12.8
2018-09-22T00:37:16.956Z,12.8
2018-09-22T00:38:18.425Z,12.8
2018-09-22T00:39:20.045Z,12.8
2018-09-22T00:40:21.560Z,12.8
2018-09-22T00:41:23.130Z,12.8
2018-09-22T00:42:24.550Z,12.8
2018-09-22T00:43:26.215Z,12.8
2018-09-22T00:44:27.661Z,12.8
2018-09-22T00:45:29.326Z,12.9
2018-09-22T00:46:30.756Z,12.8
2018-09-22T00:47:32.380Z,12.8
2018-09-22T00:48:33.848Z,12.8
2018-09-22T00:49:35.459Z,12.8
2018-09-22T00:50:36.949Z,12.8
2018-09-22T00:51:38.574Z,12.8
2018-09-22T00:52:40.041Z,12.8
2018-09-22T00:53:41.640Z,12.9
2018-09-22T00:54:43.115Z,12.8
2018-09-22T00:55:44.753Z,12.8
2018-09-22T00:56:46.207Z,12.8
2018-09-22T00:57:47.868Z,12.7
2018-09-22T00:58:49.339Z,12.8
2018-09-22T00:59:50.767Z,12.8
2018-09-22T01:00:52.355Z,12.7
2018-09-22T01:01:53.832Z,12.7
2018-09-22T01:02:55.285Z,12.7
2018-09-22T01:03:56.877Z,12.6
2018-09-22T01:04:58.321Z,12.6
2018-09-22T01:05:59.728Z,12.6
2018-09-22T01:07:01.382Z,12.7
2018-09-22T01:08:02.798Z,12.6
2018-09-22T01:09:04.266Z,12.6
2018-09-22T01:10:05.949Z,12.7
2018-09-22T01:11:07.397Z,12.7
2018-09-22T01:12:09.009Z,12.7
2018-09-22T01:13:10.482Z,12.7
2018-09-22T01:14:12.061Z,12.7
2018-09-22T01:15:13.515Z,12.7
2018-09-22T01:16:14.965Z,12.7
2018-09-22T01:17:16.680Z,12.7
2018-09-22T01:18:18.120Z,12.7
2018-09-22T01:19:19.654Z,12.6
2018-09-22T01:20:21.369Z,12.6
2018-09-22T01:21:22.866Z,12.6
2018-09-22T01:22:24.695Z,12.5
2018-09-22T01:23:26.137Z,12.5
2018-09-22T01:24:27.797Z,12.6
2018-09-22T01:25:29.250Z,12.5
2018-09-22T01:26:30.747Z,12.5
2018-09-22T01:27:32.453Z,12.5
2018-09-22T01:28:33.882Z,12.6
2018-09-22T01:29:35.336Z,12.6
2018-09-22T01:30:37.024Z,12.6
2018-09-22T01:31:38.478Z,12.5
2018-09-22T01:32:39.916Z,12.6
2018-09-22T01:33:41.530Z,12.6
2018-09-22T01:34:42.952Z,12.7
2018-09-22T01:35:44.386Z,12.6
2018-09-22T01:36:46.059Z,12.6
2018-09-22T01:37:47.511Z,12.7
2018-09-22T01:38:48.939Z,12.7
2018-09-22T01:39:50.553Z,12.6
2018-09-22T01:40:51.988Z,12.6
2018-09-22T01:41:53.675Z,12.5
2018-09-22T01:42:55.114Z,12.5
2018-09-22T01:43:56.739Z,12.5
2018-09-22T01:44:58.187Z,12.4
2018-09-22T01:45:59.648Z,12.5
2018-09-22T01:47:01.683Z,12.5
2018-09-22T01:48:03.119Z,12.4
2018-09-22T01:49:04.574Z,12.4
2018-09-22T01:50:06.191Z,12.4
2018-09-22T01:51:07.668Z,12.2
2018-09-22T01:52:09.280Z,12.3
2018-09-22T01:53:10.728Z,12.2
2018-09-22T01:54:12.395Z,12.3
2018-09-22T01:55:13.822Z,12.3
2018-09-22T01:56:15.286Z,12.2
2018-09-22T01:57:16.890Z,12.3
2018-09-22T01:58:18.328Z,12.2
2018-09-22T01:59:19.778Z,12.2
2018-09-22T02:00:21.434Z,12.2
2018-09-22T02:01:22.865Z,12.1
2018-09-22T02:02:24.335Z,12.1
2018-09-22T02:03:25.928Z,12.1
2018-09-22T02:04:27.377Z,12.1
2018-09-22T02:05:28.836Z,12.1
2018-09-22T02:06:30.498Z,12.1
2018-09-22T02:07:31.925Z,12.1
2018-09-22T02:08:33.572Z,12.1
2018-09-22T02:09:35.017Z,12.1
2018-09-22T02:10:36.700Z,12.1
2018-09-22T02:11:38.052Z,12.1
2018-09-22T02:12:39.698Z,12.1
2018-09-22T02:13:41.167Z,12.1
2018-09-22T02:14:42.806Z,12.0
2018-09-22T02:15:44.294Z,12.1
2018-09-22T02:16:45.709Z,12.0
2018-09-22T02:17:47.344Z,12.0
2018-09-22T02:18:48.787Z,12.1
2018-09-22T02:19:50.222Z,12.0
2018-09-22T02:20:51.923Z,12.0
2018-09-22T02:21:53.394Z,12.0
2018-09-22T02:22:54.821Z,12.0
2018-09-22T02:23:56.381Z,12.0
2018-09-22T02:24:57.817Z,12.0
2018-09-22T02:25:59.234Z,11.9
2018-09-22T02:27:00.953Z,12.0
2018-09-22T02:28:02.386Z,12.0
2018-09-22T02:29:04.039Z,11.9
2018-09-22T02:30:05.483Z,12.0
2018-09-22T02:31:07.052Z,12.1
2018-09-22T02:32:08.483Z,12.0
2018-09-22T02:33:10.158Z,12.0
2018-09-22T02:34:11.585Z,12.0
2018-09-22T02:35:13.254Z,12.1
2018-09-22T02:36:14.693Z,12.0
2018-09-22T02:37:16.339Z,12.0
2018-09-22T02:38:17.799Z,12.0
2018-09-22T02:39:19.399Z,12.0
2018-09-22T02:40:20.839Z,12.0
2018-09-22T02:41:22.482Z,12.0
2018-09-22T02:42:23.945Z,12.0
2018-09-22T02:43:25.595Z,12.0
2018-09-22T02:44:27.035Z,12.0
2018-09-22T02:45:28.726Z,11.9
2018-09-22T02:46:30.217Z,12.0
2018-09-22T02:47:31.842Z,12.0
2018-09-22T02:48:33.428Z,11.9
2018-09-22T02:49:34.901Z,12.0
2018-09-22T02:50:36.338Z,11.9
2018-09-22T02:51:37.935Z,12.0
2018-09-22T02:52:39.358Z,11.9
2018-09-22T02:53:40.787Z,12.0
2018-09-22T02:54:42.462Z,11.9
2018-09-22T02:55:43.923Z,12.0
2018-09-22T02:56:45.381Z,11.9
2018-09-22T02:57:47.056Z,12.0
2018-09-22T02:58:48.496Z,12.0
2018-09-22T02:59:50.110Z,12.0
2018-09-22T03:00:51.555Z,12.0
2018-09-22T03:01:53.171Z,12.0
2018-09-22T03:02:54.612Z,12.0
2018-09-22T03:03:56.239Z,12.0
2018-09-22T03:04:57.722Z,12.1
2018-09-22T03:05:59.321Z,12.1
2018-09-22T03:07:00.760Z,12.1
2018-09-22T03:08:02.442Z,12.1
2018-09-22T03:09:03.866Z,12.2
2018-09-22T03:10:05.610Z,12.1
2018-09-22T03:11:07.004Z,12.1
2018-09-22T03:12:08.624Z,12.1
2018-09-22T03:13:10.060Z,12.2
2018-09-22T03:14:11.674Z,12.2
2018-09-22T03:15:13.506Z,12.1
2018-09-22T03:16:15.180Z,12.1
2018-09-22T03:17:16.632Z,12.1
2018-09-22T03:18:18.084Z,12.1
2018-09-22T03:19:19.718Z,12.0
2018-09-22T03:20:21.153Z,12.0
2018-09-22T03:21:22.601Z,12.0
2018-09-22T03:22:24.223Z,12.0
2018-09-22T03:23:25.666Z,12.0
2018-09-22T03:24:27.326Z,12.0
2018-09-22T03:25:28.772Z,11.9
2018-09-22T03:26:30.379Z,12.0
2018-09-22T03:27:31.845Z,12.0
2018-09-22T03:28:33.273Z,11.9
2018-09-22T03:29:34.978Z,11.9
2018-09-22T03:30:36.439Z,11.9
2018-09-22T03:31:37.881Z,11.9
2018-09-22T03:32:39.480Z,11.9
2018-09-22T03:33:40.920Z,11.8
2018-09-22T03:34:42.538Z,11.8
2018-09-22T03:35:43.979Z,11.8
2018-09-22T03:36:45.440Z,11.8
2018-09-22T03:37:47.043Z,11.8
2018-09-22T03:38:48.506Z,11.9
2018-09-22T03:39:49.917Z,11.9
2018-09-22T03:40:51.592Z,11.7
2018-09-22T03:41:53.107Z,11.7
2018-09-22T03:42:54.536Z,11.8
2018-09-22T03:43:56.153Z,11.8
2018-09-22T03:44:57.546Z,11.8
2018-09-22T03:45:59.005Z,11.8
2018-09-22T03:47:00.678Z,11.8
2018-09-22T03:48:02.142Z,11.7
2018-09-22T03:49:03.729Z,11.8
2018-09-22T03:50:05.172Z,11.7
2018-09-22T03:51:06.844Z,11.8
2018-09-22T03:52:08.292Z,11.7
2018-09-22T03:53:09.870Z,11.7
2018-09-22T03:54:11.319Z,11.8
2018-09-22T03:55:12.982Z,11.7
2018-09-22T03:56:14.406Z,11.7
2018-09-22T03:57:16.046Z,11.7
2018-09-22T03:58:17.465Z,11.7
2018-09-22T03:59:19.171Z,11.7
2018-09-22T04:00:20.711Z,11.6
2018-09-22T04:01:22.303Z,11.5
2018-09-22T04:02:23.752Z,11.6
2018-09-22T04:03:25.273Z,11.7
2018-09-22T04:04:26.982Z,11.6
2018-09-22T04:05:28.418Z,11.6
2018-09-22T04:06:29.865Z,11.5
2018-09-22T04:07:31.469Z,11.6
2018-09-22T04:08:32.915Z,11.5
2018-09-22T04:09:34.590Z,11.6
2018-09-22T04:10:36.045Z,11.5
2018-09-22T04:11:37.663Z,11.6
2018-09-22T04:12:39.158Z,11.6
2018-09-22T04:13:40.601Z,11.5
2018-09-22T04:14:42.189Z,11.6
2018-09-22T04:15:43.677Z,11.6
2018-09-22T04:16:45.110Z,11.5
2018-09-22T04:17:46.751Z,11.5
2018-09-22T04:18:48.211Z,11.6
2018-09-22T04:19:49.806Z,11.5
2018-09-22T04:20:51.306Z,11.5
2018-09-22T04:21:52.906Z,11.5
2018-09-22T04:22:54.335Z,11.5
2018-09-22T04:23:55.989Z,11.5
2018-09-22T04:24:57.477Z,11.5
2018-09-22T04:25:59.068Z,11.5
2018-09-22T04:27:00.530Z,11.5
2018-09-22T04:28:02.214Z,11.6
2018-09-22T04:29:03.642Z,11.5
2018-09-22T04:30:05.221Z,11.4
2018-09-22T04:31:06.683Z,11.4
2018-09-22T04:32:08.116Z,11.5
2018-09-22T04:33:09.801Z,11.5
2018-09-22T04:34:11.231Z,11.5
2018-09-22T04:35:12.757Z,11.5
2018-09-22T04:36:14.275Z,11.4
2018-09-22T04:37:15.733Z,11.4
2018-09-22T04:38:17.219Z,11.5
2018-09-22T04:39:18.622Z,11.4
2018-09-22T04:40:20.313Z,11.4
2018-09-22T04:41:22.118Z,11.4
2018-09-22T04:42:23.763Z,11.5
2018-09-22T04:43:25.206Z,11.5
2018-09-22T04:44:26.843Z,11.5
2018-09-22T04:45:28.322Z,11.4
2018-09-22T04:46:29.895Z,11.4
2018-09-22T04:47:31.369Z,11.5
2018-09-22T04:48:32.799Z,11.5
2018-09-22T04:49:34.453Z,11.4
2018-09-22T04:50:35.893Z,11.5
2018-09-22T04:51:37.305Z,11.5
2018-09-22T04:52:38.998Z,11.5
2018-09-22T04:53:40.481Z,11.5
2018-09-22T04:54:41.987Z,11.5
2018-09-22T04:55:43.710Z,11.5
2018-09-22T04:56:45.185Z,11.5
2018-09-22T04:57:46.644Z,11.5
2018-09-22T04:58:48.212Z,11.5
2018-09-22T04:59:49.692Z,11.4
2018-09-22T05:00:51.156Z,11.5
2018-09-22T05:01:52.731Z,11.6
2018-09-22T05:02:54.169Z,11.6
2018-09-22T05:03:55.625Z,11.5
2018-09-22T05:04:57.300Z,11.5
2018-09-22T05:05:58.703Z,11.6
2018-09-22T05:07:00.166Z,11.5
2018-09-22T05:08:01.827Z,11.5
2018-09-22T05:09:03.266Z,11.6
2018-09-22T05:10:04.690Z,11.6
2018-09-22T05:11:06.324Z,11.6
2018-09-22T05:12:07.774Z,11.6
2018-09-22T05:13:09.194Z,11.6
2018-09-22T05:14:10.915Z,11.6
2018-09-22T05:15:12.349Z,11.6
2018-09-22T05:16:13.925Z,11.6
2018-09-22T05:17:15.398Z,11.5
2018-09-22T05:18:16.814Z,11.6
2018-09-22T05:19:18.485Z,11.7
2018-09-22T05:20:19.887Z,11.6
2018-09-22T05:21:21.740Z,11.5
2018-09-22T05:22:23.416Z,11.6
2018-09-22T05:23:24.848Z,11.6
2018-09-22T05:24:26.267Z,11.6
2018-09-22T05:25:27.923Z,11.6
2018-09-22T05:26:29.387Z,11.6
2018-09-22T05:27:30.986Z,11.6
2018-09-22T05:28:32.391Z,11.6
2018-09-22T05:29:33.858Z,11.6
2018-09-22T05:30:35.561Z,11.6
2018-09-22T05:31:37.012Z,11.6
2018-09-22T05:32:38.456Z,11.6
2018-09-22T05:33:40.104Z,11.7
2018-09-22T05:34:41.542Z,11.6
2018-09-22T05:35:43.214Z,11.6
2018-09-22T05:36:44.664Z,11.7
2018-09-22T05:37:46.090Z,11.7
2018-09-22T05:38:47.701Z,11.7
2018-09-22T05:39:49.142Z,11.7
2018-09-22T05:40:50.626Z,11.7
2018-09-22T05:41:52.238Z,11.7
2018-09-22T05:42:53.575Z,11.7
2018-09-22T05:43:55.005Z,11.8
2018-09-22T05:44:56.513Z,11.8
2018-09-22T05:45:57.987Z,11.8
2018-09-22T05:46:59.601Z,11.7
2018-09-22T05:48:01.091Z,11.8
2018-09-22T05:49:02.681Z,11.8
2018-09-22T05:50:04.134Z,11.8
2018-09-22T05:51:05.781Z,11.8
2018-09-22T05:52:07.235Z,11.9
2018-09-22T05:53:08.942Z,11.9
2018-09-22T05:54:10.403Z,12.0
2018-09-22T05:55:11.847Z,11.9
2018-09-22T05:56:13.284Z,11.9
2018-09-22T05:57:14.724Z,11.9
2018-09-22T05:58:16.446Z,11.9
2018-09-22T05:59:17.806Z,12.0
2018-09-22T06:00:19.401Z,12.0
2018-09-22T06:01:20.820Z,12.0
2018-09-22T06:02:22.414Z,12.0
2018-09-22T06:03:23.895Z,12.0
2018-09-22T06:04:25.298Z,12.1
2018-09-22T06:05:27.001Z,12.1
2018-09-22T06:06:28.419Z,12.1
2018-09-22T06:07:29.840Z,12.2
2018-09-22T06:08:31.481Z,12.1
2018-09-22T06:09:32.996Z,12.2
2018-09-22T06:10:34.446Z,12.2
2018-09-22T06:11:36.015Z,12.2
2018-09-22T06:12:37.444Z,12.2
2018-09-22T06:13:38.903Z,12.2
2018-09-22T06:14:40.547Z,12.2
2018-09-22T06:15:42.160Z,12.2
2018-09-22T06:16:43.738Z,12.3
2018-09-22T06:17:45.146Z,12.3
2018-09-22T06:18:46.759Z,12.3
2018-09-22T06:19:48.202Z,12.3
2018-09-22T06:20:49.625Z,12.4
2018-09-22T06:21:51.217Z,12.5
2018-09-22T06:22:52.652Z,12.5
2018-09-22T06:23:54.108Z,12.6
2018-09-22T06:24:55.815Z,12.6
2018-09-22T06:25:57.317Z,12.6
2018-09-22T06:26:59.896Z,12.6
2018-09-22T06:28:01.366Z,12.6
2018-09-22T06:29:02.829Z,12.7
2018-09-22T06:30:04.456Z,12.8
2018-09-22T06:31:06.012Z,12.8
2018-09-22T06:32:07.429Z,12.8
2018-09-22T06:33:08.969Z,12.8
2018-09-22T06:34:10.390Z,12.8
2018-09-22T06:35:11.808Z,12.8
2018-09-22T06:36:13.441Z,12.8
2018-09-22T06:37:15.058Z,12.9
2018-09-22T06:38:16.566Z,12.9
2018-09-22T06:39:18.046Z,12.9
2018-09-22T06:40:19.651Z,13.0
2018-09-22T06:41:21.099Z,13.2
2018-09-22T06:42:22.751Z,13.4
2018-09-22T06:43:24.221Z,13.5
2018-09-22T06:44:25.819Z,13.8
2018-09-22T06:45:27.263Z,14.0
2018-09-22T06:46:29.909Z,14.2
2018-09-22T06:47:31.454Z,14.3
2018-09-22T06:48:32.989Z,14.5
2018-09-22T06:49:34.437Z,14.8
2018-09-22T06:50:35.877Z,15.1
2018-09-22T06:51:37.541Z,15.4
2018-09-22T06:52:38.972Z,15.8
2018-09-22T06:53:40.427Z,15.9
2018-09-22T06:54:42.106Z,16.1
2018-09-22T06:55:43.516Z,16.1
2018-09-22T06:56:44.997Z,15.9
2018-09-22T06:57:46.598Z,15.8
2018-09-22T06:58:48.020Z,15.7
2018-09-22T06:59:49.456Z,15.7
2018-09-22T07:00:51.114Z,15.5
2018-09-22T07:01:52.577Z,15.4
2018-09-22T07:02:54.073Z,15.4
2018-09-22T07:03:55.616Z,15.3
2018-09-22T07:04:57.088Z,15.3
2018-09-22T07:05:58.744Z,15.2
2018-09-22T07:07:00.234Z,15.2
2018-09-22T07:08:01.818Z,15.3
2018-09-22T07:09:03.244Z,15.3
2018-09-22T07:10:04.710Z,15.4
2018-09-22T07:11:06.403Z,15.5
2018-09-22T07:12:08.224Z,15.5
2018-09-22T07:13:09.680Z,15.6
2018-09-22T07:14:11.309Z,15.6
2018-09-22T07:15:12.707Z,15.5
2018-09-22T07:16:14.328Z,15.4
2018-09-22T07:17:15.762Z,15.4
2018-09-22T07:18:17.448Z,15.4
2018-09-22T07:19:18.997Z,15.3
2018-09-22T07:20:20.505Z,15.3
2018-09-22T07:21:22.174Z,15.4
2018-09-22T07:22:23.627Z,15.5
2018-09-22T07:23:25.069Z,15.5
2018-09-22T07:24:26.713Z,15.4
2018-09-22T07:25:28.217Z,15.4
2018-09-22T07:26:29.839Z,15.4
2018-09-22T07:27:31.271Z,15.4
2018-09-22T07:28:32.883Z,15.4
2018-09-22T07:29:34.311Z,15.5
2018-09-22T07:30:35.749Z,15.5
2018-09-22T07:31:37.425Z,15.5
2018-09-22T07:32:38.871Z,15.6
2018-09-22T07:33:40.343Z,15.6
2018-09-22T07:34:41.938Z,15.6
2018-09-22T07:35:43.384Z,15.5
2018-09-22T07:36:45.018Z,15.6
2018-09-22T07:37:46.449Z,15.6
2018-09-22T07:38:48.080Z,15.6
2018-09-22T07:39:49.517Z,15.6
2018-09-22T07:40:50.976Z,15.6
2018-09-22T07:41:52.604Z,15.7
2018-09-22T07:42:54.056Z,15.7
2018-09-22T07:43:55.898Z,15.7
2018-09-22T07:44:57.549Z,15.7
2018-09-22T07:45:59.039Z,15.8
2018-09-22T07:47:00.493Z,15.9
2018-09-22T07:48:02.100Z,16.0
2018-09-22T07:49:03.554Z,16.0
2018-09-22T07:50:05.037Z,15.9
2018-09-22T07:51:06.638Z,15.9
2018-09-22T07:52:08.080Z,16.0
2018-09-22T07:53:09.548Z,16.0
2018-09-22T07:54:11.126Z,16.2
2018-09-22T07:55:12.563Z,16.1
2018-09-22T07:56:14.163Z,16.2
2018-09-22T07:57:15.770Z,16.2
2018-09-22T07:58:17.199Z,16.2
2018-09-22T07:59:18.807Z,16.3
2018-09-22T08:00:20.316Z,16.3
2018-09-22T08:01:21.823Z,16.3
2018-09-22T08:02:23.330Z,16.3
2018-09-22T08:03:25.965Z,16.4
2018-09-22T08:04:27.423Z,16.3
2018-09-22T08:05:29.027Z,16.3
2018-09-22T08:06:30.512Z,16.3
2018-09-22T08:07:32.154Z,16.4
2018-09-22T08:08:33.592Z,16.5
2018-09-22T08:09:35.220Z,16.5
2018-09-22T08:10:36.781Z,16.6
2018-09-22T08:11:38.292Z,16.5
2018-09-22T08:12:40.296Z,16.6
2018-09-22T08:13:41.727Z,16.7
2018-09-22T08:14:43.173Z,16.7
2018-09-22T08:15:44.871Z,16.8
2018-09-22T08:16:46.285Z,16.7
2018-09-22T08:17:47.706Z,16.7
2018-09-22T08:18:49.349Z,16.9
2018-09-22T08:19:50.836Z,16.9
2018-09-22T08:20:52.301Z,17.0
2018-09-22T08:21:53.932Z,17.0
2018-09-22T08:22:55.496Z,17.1
2018-09-22T08:23:56.990Z,17.1
2018-09-22T08:24:58.444Z,17.1
2018-09-22T08:25:59.890Z,17.0
2018-09-22T08:27:01.546Z,17.1
2018-09-22T08:28:03.027Z,17.1
2018-09-22T08:29:04.462Z,17.3
2018-09-22T08:30:06.108Z,17.4
2018-09-22T08:31:07.586Z,17.6
2018-09-22T08:32:09.333Z,17.6
2018-09-22T08:33:10.579Z,17.6
2018-09-22T08:34:12.205Z,17.8
2018-09-22T08:35:13.724Z,17.8
2018-09-22T08:36:15.385Z,17.7
2018-09-22T08:37:16.746Z,17.8
2018-09-22T08:38:18.192Z,17.8
2018-09-22T08:39:19.644Z,17.8
2018-09-22T08:40:21.301Z,17.8
2018-09-22T08:41:22.766Z,17.9
2018-09-22T08:42:24.367Z,17.9
2018-09-22T08:43:25.792Z,17.9
2018-09-22T08:44:27.677Z,17.8
2018-09-22T08:45:29.142Z,17.8
2018-09-22T08:46:30.588Z,17.9
2018-09-22T08:47:32.188Z,18.2
2018-09-22T08:48:33.729Z,18.4
2018-09-22T08:49:35.251Z,18.4
2018-09-22T08:50:36.967Z,18.4
2018-09-22T08:51:38.455Z,18.4
2018-09-22T08:52:39.902Z,18.4
2018-09-22T08:53:41.478Z,18.4
2018-09-22T08:54:42.953Z,18.3
2018-09-22T08:55:44.399Z,18.3
2018-09-22T08:56:45.972Z,18.4
2018-09-22T08:57:47.477Z,18.4
2018-09-22T08:58:49.078Z,18.5
2018-09-22T08:59:50.576Z,18.6
2018-09-22T09:00:52.037Z,18.9
2018-09-22T09:01:53.620Z,18.9
2018-09-22T09:02:55.117Z,19.0
2018-09-22T09:03:56.606Z,19.1
2018-09-22T09:04:58.151Z,19.2
2018-09-22T09:05:59.583Z,19.2
2018-09-22T09:07:01.125Z,19.2
2018-09-22T09:08:02.690Z,19.2
2018-09-22T09:09:04.191Z,19.1
2018-09-22T09:10:05.707Z,19.2
2018-09-22T09:11:07.353Z,19.2
2018-09-22T09:12:08.799Z,19.3
2018-09-22T09:13:10.254Z,19.2
2018-09-22T09:14:11.978Z,19.1
2018-09-22T09:15:13.314Z,19.1
2018-09-22T09:16:14.819Z,19.0
2018-09-22T09:17:16.434Z,18.8
2018-09-22T09:18:17.943Z,18.8
2018-09-22T09:19:19.533Z,18.7
2018-09-22T09:20:21.030Z,18.6
2018-09-22T09:21:22.603Z,18.6
2018-09-22T09:22:24.148Z,18.5
2018-09-22T09:23:25.700Z,18.4
2018-09-22T09:24:27.193Z,18.4
2018-09-22T09:25:28.828Z,18.5
2018-09-22T09:26:30.256Z,18.5
2018-09-22T09:27:31.940Z,18.5
2018-09-22T09:28:33.363Z,18.5
2018-09-22T09:29:34.981Z,18.6
2018-09-22T09:30:36.459Z,18.6
2018-09-22T09:31:37.964Z,18.7
2018-09-22T09:32:39.660Z,19.1
2018-09-22T09:33:41.127Z,19.3
2018-09-22T09:34:42.642Z,19.5
2018-09-22T09:35:45.195Z,19.7
2018-09-22T09:36:46.657Z,19.8
2018-09-22T09:37:48.122Z,19.9
2018-09-22T09:38:49.740Z,20.0
2018-09-22T09:39:51.199Z,20.0
2018-09-22T09:40:52.666Z,20.1
2018-09-22T09:41:54.285Z,20.3
2018-09-22T09:42:55.750Z,20.2
2018-09-22T09:43:57.205Z,20.2
2018-09-22T09:44:58.911Z,20.4
2018-09-22T09:46:00.356Z,20.3
2018-09-22T09:47:01.876Z,20.4
2018-09-22T09:48:03.525Z,20.6
2018-09-22T09:49:04.998Z,20.6
2018-09-22T09:50:06.447Z,20.7
2018-09-22T09:51:08.078Z,20.6
2018-09-22T09:52:09.546Z,20.7
2018-09-22T09:53:11.125Z,20.8
2018-09-22T09:54:12.563Z,20.7
2018-09-22T09:55:14.234Z,20.8
2018-09-22T09:56:15.655Z,20.8
2018-09-22T09:57:17.094Z,20.9
2018-09-22T09:58:18.765Z,20.8
2018-09-22T09:59:20.263Z,20.7
2018-09-22T10:00:21.725Z,20.6
2018-09-22T10:01:23.302Z,20.5
2018-09-22T10:02:24.785Z,20.5
2018-09-22T10:03:26.396Z,20.5
2018-09-22T10:04:27.951Z,20.3
2018-09-22T10:05:29.569Z,20.4
2018-09-22T10:06:31.005Z,20.5
2018-09-22T10:07:33.235Z,20.6
2018-09-22T10:08:34.783Z,20.7
2018-09-22T10:09:36.397Z,20.8
2018-09-22T10:10:37.867Z,20.9
2018-09-22T10:11:40.123Z,20.9
2018-09-22T10:12:41.512Z,20.6
2018-09-22T10:13:43.055Z,20.5
2018-09-22T10:14:44.698Z,20.4
2018-09-22T10:15:46.162Z,20.5
2018-09-22T10:16:47.597Z,20.5
2018-09-22T10:17:49.179Z,20.6
2018-09-22T10:18:50.607Z,20.6
2018-09-22T10:19:52.266Z,20.4
2018-09-22T10:20:53.870Z,20.4
2018-09-22T10:21:55.574Z,20.4
2018-09-22T10:22:57.061Z,20.5
2018-09-22T10:23:58.686Z,20.6
2018-09-22T10:25:00.205Z,20.6
2018-09-22T10:26:01.812Z,20.6
2018-09-22T10:27:03.337Z,20.6
2018-09-22T10:28:05.615Z,20.6
2018-09-22T10:29:07.338Z,20.4
2018-09-22T10:30:08.828Z,20.4
2018-09-22T10:31:10.287Z,20.5
2018-09-22T10:32:11.833Z,20.7
2018-09-22T10:33:13.268Z,20.8
2018-09-22T10:34:14.716Z,20.9
2018-09-22T10:35:16.328Z,20.8
2018-09-22T10:36:17.749Z,20.9
2018-09-22T10:37:19.243Z,21.1
2018-09-22T10:38:20.868Z,21.3
2018-09-22T10:39:22.332Z,21.3
2018-09-22T10:40:23.821Z,21.2
2018-09-22T10:41:25.974Z,21.4
2018-09-22T10:42:27.729Z,21.3
2018-09-22T10:43:29.211Z,21.4
2018-09-22T10:44:30.741Z,21.5
2018-09-22T10:45:32.302Z,21.5
2018-09-22T10:46:33.822Z,21.7
2018-09-22T10:47:35.389Z,21.6
2018-09-22T10:48:36.907Z,21.6
2018-09-22T10:49:38.388Z,21.8
2018-09-22T10:50:40.017Z,21.8
2018-09-22T10:51:41.500Z,21.8
2018-09-22T10:52:43.131Z,21.7
2018-09-22T10:53:44.505Z,21.6
2018-09-22T10:54:46.185Z,21.5
2018-09-22T10:55:47.644Z,21.4
2018-09-22T10:56:49.289Z,21.4
2018-09-22T10:57:50.733Z,21.4
2018-09-22T10:58:52.357Z,21.5
2018-09-22T10:59:53.845Z,21.6
2018-09-22T11:00:55.422Z,21.6
2018-09-22T11:01:56.893Z,21.6
2018-09-22T11:02:58.511Z,21.7
2018-09-22T11:03:59.981Z,21.8
2018-09-22T11:05:01.631Z,21.9
2018-09-22T11:06:03.073Z,22.0
2018-09-22T11:07:05.171Z,22.1
2018-09-22T11:08:06.656Z,22.3
2018-09-22T11:09:08.296Z,22.3
2018-09-22T11:10:09.802Z,22.3
2018-09-22T11:11:11.477Z,22.2
2018-09-22T11:12:12.963Z,22.2
2018-09-22T11:13:14.541Z,22.1
2018-09-22T11:14:16.060Z,22.0
2018-09-22T11:15:17.667Z,21.8
2018-09-22T11:16:19.247Z,21.6
2018-09-22T11:17:20.918Z,21.5
2018-09-22T11:18:22.382Z,21.4
2018-09-22T11:19:23.854Z,21.4
2018-09-22T11:20:25.451Z,21.6
2018-09-22T11:21:26.958Z,21.7
2018-09-22T11:22:28.447Z,21.8
2018-09-22T11:23:30.042Z,21.8
2018-09-22T11:24:31.511Z,21.9
2018-09-22T11:25:33.072Z,21.9
2018-09-22T11:26:34.623Z,21.9
2018-09-22T11:27:36.081Z,22.0
2018-09-22T11:28:37.581Z,21.9
2018-09-22T11:29:39.072Z,21.9
2018-09-22T11:30:40.552Z,21.9
2018-09-22T11:31:42.152Z,21.9
2018-09-22T11:32:43.701Z,21.9
2018-09-22T11:33:45.141Z,22.0
2018-09-22T11:34:46.698Z,21.9
2018-09-22T11:35:48.186Z,22.1
2018-09-22T11:36:49.661Z,22.1
2018-09-22T11:37:51.204Z,22.0
2018-09-22T11:38:52.677Z,22.2
2018-09-22T11:39:54.151Z,22.1
2018-09-22T11:40:55.690Z,22.1
2018-09-22T11:41:57.176Z,22.1
2018-09-22T11:42:58.625Z,22.2
2018-09-22T11:44:00.254Z,22.0
2018-09-22T11:45:01.704Z,22.0
2018-09-22T11:46:03.340Z,21.8
2018-09-22T11:47:04.958Z,21.6
2018-09-22T11:48:06.452Z,21.6
2018-09-22T11:49:08.087Z,21.5
2018-09-22T11:50:09.590Z,21.4
2018-09-22T11:51:11.486Z,21.3
2018-09-22T11:52:13.235Z,21.3
2018-09-22T11:53:14.870Z,21.3
2018-09-22T11:54:16.495Z,21.2
2018-09-22T11:55:18.168Z,21.2
2018-09-22T11:56:19.680Z,21.2
2018-09-22T11:57:21.185Z,21.1
2018-09-22T11:58:22.639Z,21.1
2018-09-22T11:59:24.120Z,21.1
2018-09-22T12:00:25.740Z,21.1
2018-09-22T12:01:27.213Z,21.1
2018-09-22T12:02:28.659Z,21.1
2018-09-22T12:03:30.291Z,21.1
2018-09-22T12:04:31.837Z,21.1
2018-09-22T12:05:33.425Z,21.2
2018-09-22T12:06:34.909Z,21.2
2018-09-22T12:07:36.429Z,21.2
2018-09-22T12:08:37.895Z,21.2
2018-09-22T12:09:39.532Z,21.2
2018-09-22T12:10:41.002Z,21.2
2018-09-22T12:11:42.612Z,21.3
2018-09-22T12:12:44.118Z,21.2
2018-09-22T12:13:45.738Z,21.1
2018-09-22T12:14:47.196Z,21.1
2018-09-22T12:15:48.756Z,21.0
2018-09-22T12:16:52.536Z,20.9
2018-09-22T12:17:54.012Z,21.0
2018-09-22T12:18:55.556Z,21.0
2018-09-22T12:19:57.227Z,21.2
2018-09-22T12:20:58.728Z,21.2
2018-09-22T12:22:00.330Z,21.3
2018-09-22T12:23:01.770Z,21.4
2018-09-22T12:24:03.383Z,21.5
2018-09-22T12:25:04.867Z,21.6
2018-09-22T12:26:06.465Z,21.5
2018-09-22T12:27:07.957Z,21.5
2018-09-22T12:28:09.523Z,21.5
2018-09-22T12:29:10.970Z,21.5
2018-09-22T12:30:12.450Z,21.5
2018-09-22T12:31:14.040Z,21.4
2018-09-22T12:32:15.561Z,21.4
2018-09-22T12:33:17.034Z,21.4
2018-09-22T12:34:18.625Z,21.4
2018-09-22T12:35:20.110Z,21.4
2018-09-22T12:36:21.721Z,21.4
2018-09-22T12:37:23.177Z,21.4
2018-09-22T12:38:24.653Z,21.4
2018-09-22T12:39:26.228Z,21.4
2018-09-22T12:40:27.725Z,21.5
2018-09-22T12:41:29.231Z,21.4
2018-09-22T12:42:31.360Z,21.4
2018-09-22T12:43:32.879Z,21.4
2018-09-22T12:44:34.453Z,21.4
2018-09-22T12:45:36.124Z,21.2
2018-09-22T12:46:37.606Z,21.3
2018-09-22T12:47:39.170Z,21.3
2018-09-22T12:48:40.670Z,21.2
2018-09-22T12:49:42.281Z,21.2
2018-09-22T12:50:43.739Z,21.1
2018-09-22T12:51:45.357Z,21.1
2018-09-22T12:52:46.827Z,21.1
2018-09-22T12:53:48.340Z,21.1
2018-09-22T12:54:49.748Z,21.0
2018-09-22T12:55:51.248Z,21.0
2018-09-22T12:56:52.959Z,20.9
2018-09-22T12:57:54.454Z,20.8
2018-09-22T12:58:55.926Z,20.8
2018-09-22T12:59:57.520Z,20.8
2018-09-22T13:00:58.993Z,20.7
2018-09-22T13:02:00.524Z,20.6
2018-09-22T13:03:02.232Z,20.7
2018-09-22T13:04:03.705Z,20.6
2018-09-22T13:05:05.225Z,20.5
2018-09-22T13:06:06.753Z,20.5
2018-09-22T13:07:09.044Z,20.5
2018-09-22T13:08:10.658Z,20.4
2018-09-22T13:09:12.194Z,20.3
2018-09-22T13:10:13.773Z,20.2
2018-09-22T13:11:15.260Z,20.2
2018-09-22T13:12:16.786Z,20.1
2018-09-22T13:13:19.664Z,20.1
2018-09-22T13:14:21.168Z,20.1
2018-09-22T13:15:22.661Z,20.1
2018-09-22T13:16:24.254Z,20.0
2018-09-22T13:17:25.719Z,20.0
2018-09-22T13:18:27.328Z,20.1
2018-09-22T13:19:28.779Z,20.0
2018-09-22T13:20:30.381Z,20.0
2018-09-22T13:21:31.836Z,20.1
2018-09-22T13:22:33.478Z,19.9
2018-09-22T13:23:34.988Z,20.1
2018-09-22T13:24:36.532Z,19.9
2018-09-22T13:25:38.051Z,19.9
2018-09-22T13:26:39.611Z,19.9
2018-09-22T13:27:41.354Z,19.9
2018-09-22T13:28:42.826Z,20.0
2018-09-22T13:29:44.383Z,20.1
2018-09-22T13:30:46.059Z,20.1
2018-09-22T13:31:47.535Z,20.2
2018-09-22T13:32:49.147Z,20.2
2018-09-22T13:33:50.648Z,20.3
2018-09-22T13:34:52.194Z,20.2
2018-09-22T13:35:53.747Z,20.2
2018-09-22T13:36:55.296Z,20.2
2018-09-22T13:37:56.810Z,20.3
2018-09-22T13:38:58.589Z,20.2